Cap Palliser — A8OH4 — position and weather

sailwx.info

Track history (hours):
 
Tides and Currents Weather Stations Pressure Air Temp Water Temp Dewpoint Dewpoint Depression Visibility Wind Speed Wind Dir Waves Ship Positions

Cap Palliser

Last reported at 2017-Nov-13 01:05 UTC. Time now 2017-Nov-24 07:12 UTC.
Position N 26°40' W 114°50'.
Warning: this ship's position is 11 days out of date.

Length 170 m; beam 27 m; draft 11.3 m.

Type: Ship (hazmat cat A). MMSI: 636016647.

Date/timePositionNaut miles runAvg speedWind from/ knotsBaromVisibWave heightAir tempDewpointWater temp
2017-Nov-13 01:05N 26°40' W 114°50'115.7
2017-Nov-13 01:00N 26°41' W 114°51'915.5
2017-Nov-13 00:27N 26°48' W 114°57'715.5
2017-Nov-13 00:00N 26°54' W 115°02'815.6
2017-Nov-12 23:31N 26°60' W 115°07'815.2
2017-Nov-12 23:01N 27°06' W 115°12'815.5
2017-Nov-12 22:29N 27°12' W 115°18'715.7
2017-Nov-12 22:00N 27°18' W 115°22'815.2
2017-Nov-12 21:30N 27°24' W 115°28'2715.6
2017-Nov-12 19:45N 27°46' W 115°47'1215.9
2017-Nov-12 18:58N 27°56' W 115°55'715.7
2017-Nov-12 18:30N 28°02' W 116°00'1215.7
2017-Nov-12 17:42N 28°12' W 116°09'615.8
2017-Nov-12 17:20N 28°17' W 116°12'3515.7
2017-Nov-12 15:08N 28°45' W 116°36'215.5
2017-Nov-12 14:58N 28°46' W 116°37'17915.7
2017-Nov-12 03:33N 31°10' W 118°42'1115.9
2017-Nov-12 02:53N 31°18' W 118°49'8917.0
2017-Nov-11 21:37N 32°30' W 119°52'517.5
2017-Nov-11 21:19N 32°34' W 119°56'917.4
2017-Nov-11 20:47N 32°41' W 120°02'1917.1
2017-Nov-11 19:41N 32°56' W 120°16'416.8
2017-Nov-11 19:27N 32°59' W 120°18'816.9
2017-Nov-11 19:00N 33°06' W 120°24'816.1
2017-Nov-11 18:30N 33°12' W 120°29'815.8
2017-Nov-11 17:59N 33°19' W 120°35'715.7
2017-Nov-11 17:30N 33°25' W 120°41'815.6
2017-Nov-11 17:01N 33°31' W 120°46'815.5
2017-Nov-11 16:30N 33°37' W 120°52'816.1
2017-Nov-11 16:01N 33°43' W 120°58'917.7
2017-Nov-11 15:31N 33°51' W 121°04'917.9
2017-Nov-11 15:00N 33°59' W 121°08'917.6
2017-Nov-11 14:30N 34°07' W 121°12'918.0
2017-Nov-11 14:01N 34°16' W 121°16'918.0
2017-Nov-11 13:31N 34°24' W 121°20'917.7
2017-Nov-11 13:00N 34°32' W 121°24'917.7
2017-Nov-11 12:30N 34°40' W 121°29'917.7
2017-Nov-11 12:00N 34°48' W 121°33'918.0
2017-Nov-11 11:31N 34°57' W 121°37'918.0
2017-Nov-11 11:00N 35°05' W 121°41'918.0
2017-Nov-11 10:31N 35°13' W 121°45'917.7
2017-Nov-11 10:00N 35°21' W 121°50'8118.0
2017-Nov-11 05:31N 36°36' W 122°27'018.2
2017-Nov-11 05:30N 36°36' W 122°27'918.3
2017-Nov-11 05:00N 36°45' W 122°31'917.9
2017-Nov-11 04:30N 36°53' W 122°35'1017.5
2017-Nov-11 03:55N 37°03' W 122°40'717.4
2017-Nov-11 03:31N 37°10' W 122°43'917.7
2017-Nov-11 03:00N 37°18' W 122°43'917.8
2017-Nov-11 02:30N 37°27' W 122°44'917.8
2017-Nov-11 02:00N 37°36' W 122°44'816.9
2017-Nov-11 01:30N 37°44' W 122°41'612.4
2017-Nov-11 01:00N 37°47' W 122°34'714.5
2017-Nov-11 00:30N 37°50' W 122°25'611.2
2017-Nov-11 00:01N 37°48' W 122°19'0 0.4
2017-Nov-10 23:29N 37°48' W 122°19'0 0.0
2017-Nov-10 22:59N 37°48' W 122°19'0 0.0
2017-Nov-10 22:29N 37°48' W 122°19'0 0.0
2017-Nov-10 21:59N 37°48' W 122°19'0 0.0
2017-Nov-10 21:29N 37°48' W 122°19'0 0.0
2017-Nov-10 20:59N 37°48' W 122°19'0 0.0
2017-Nov-10 20:29N 37°48' W 122°19'0 0.0
2017-Nov-10 19:59N 37°48' W 122°19'0 0.0
2017-Nov-10 19:29N 37°48' W 122°19'0 0.0
2017-Nov-10 18:59N 37°48' W 122°19'0 0.0
2017-Nov-10 18:29N 37°48' W 122°19'0 0.0
2017-Nov-10 17:59N 37°48' W 122°19'0 0.0
2017-Nov-10 17:29N 37°48' W 122°19'0 0.0
2017-Nov-10 16:59N 37°48' W 122°19'0 0.0
2017-Nov-10 16:29N 37°48' W 122°19'0 0.0
2017-Nov-10 15:59N 37°48' W 122°19'0 0.0
2017-Nov-10 15:29N 37°48' W 122°19'0 0.0
2017-Nov-10 14:59N 37°48' W 122°19'0 0.0
2017-Nov-10 14:29N 37°48' W 122°19'0 0.0
2017-Nov-10 13:59N 37°48' W 122°19'0 0.0
2017-Nov-10 13:29N 37°48' W 122°19'0 0.0
2017-Nov-10 12:59N 37°48' W 122°19'0 0.0
2017-Nov-10 12:29N 37°48' W 122°19'0 0.0
2017-Nov-10 11:59N 37°48' W 122°19'0 0.0
2017-Nov-10 11:29N 37°48' W 122°19'0 0.0
2017-Nov-10 10:59N 37°48' W 122°19'0 0.0
2017-Nov-10 10:29N 37°48' W 122°19'0 0.0
2017-Nov-10 10:00N 37°48' W 122°19'1 2.8
2017-Nov-10 09:31N 37°48' W 122°20'5 9.8
2017-Nov-10 09:01N 37°49' W 122°26'714.3
2017-Nov-10 08:30N 37°47' W 122°35'611.0
2017-Nov-10 08:00N 37°43' W 122°40'4 8.5
2017-Nov-10 07:30N 37°39' W 122°40'510.3
2017-Nov-10 07:00N 37°34' W 122°40'510.2
2017-Nov-10 06:30N 37°29' W 122°40'510.2
2017-Nov-10 06:00N 37°24' W 122°40'510.5
2017-Nov-10 05:30N 37°18' W 122°40'612.0
2017-Nov-10 05:00N 37°12' W 122°40'611.9
2017-Nov-10 04:30N 37°07' W 122°38'612.4
2017-Nov-10 04:00N 37°01' W 122°35'813.2
2017-Nov-10 03:25N 36°54' W 122°31'613.4
2017-Nov-10 03:00N 36°49' W 122°28'1613.1
2017-Nov-10 01:49N 36°34' W 122°21'412.8
2017-Nov-10 01:30N 36°31' W 122°19'612.7
2017-Nov-10 01:00N 36°25' W 122°16'612.6
2017-Nov-10 00:30N 36°19' W 122°13'612.7
2017-Nov-10 00:00N 36°13' W 122°10'612.7
2017-Nov-09 23:30N 36°08' W 122°06'613.0
2017-Nov-09 23:00N 36°02' W 122°02'713.2
2017-Nov-09 22:30N 35°56' W 121°58'713.0
2017-Nov-09 22:00N 35°51' W 121°53'612.9
2017-Nov-09 21:30N 35°45' W 121°49'713.0
2017-Nov-09 20:59N 35°40' W 121°45'613.0
2017-Nov-09 20:30N 35°34' W 121°41'713.0
2017-Nov-09 20:00N 35°29' W 121°37'713.5
2017-Nov-09 19:30N 35°23' W 121°33'713.2
2017-Nov-09 19:00N 35°17' W 121°29'612.8
2017-Nov-09 18:30N 35°12' W 121°25'713.3
2017-Nov-09 18:00N 35°06' W 121°21'713.6
2017-Nov-09 17:30N 35°00' W 121°16'713.1
2017-Nov-09 17:00N 34°54' W 121°12'713.4
2017-Nov-09 16:30N 34°49' W 121°08'713.3
2017-Nov-09 16:00N 34°43' W 121°04'713.4
2017-Nov-09 15:30N 34°37' W 120°60'713.3
2017-Nov-09 14:57N 34°31' W 120°55'613.1
2017-Nov-09 14:30N 34°26' W 120°51'812.8
2017-Nov-09 13:54N 34°24' W 120°42'613.3
2017-Nov-09 13:28N 34°22' W 120°35'914.0
2017-Nov-09 12:49N 34°20' W 120°25'414.0
2017-Nov-09 12:30N 34°19' W 120°20'814.3
2017-Nov-09 11:58N 34°17' W 120°11'714.3
2017-Nov-09 11:30N 34°15' W 120°03'913.9
2017-Nov-09 10:52N 34°13' W 119°53'613.6
2017-Nov-09 10:27N 34°11' W 119°46'614.2
2017-Nov-09 10:00N 34°10' W 119°39'814.0
2017-Nov-09 09:25N 34°07' W 119°29'614.1
2017-Nov-09 09:00N 34°06' W 119°22'714.0
2017-Nov-09 08:30N 34°04' W 119°14'713.8
2017-Nov-09 08:00N 34°01' W 119°07'713.5
2017-Nov-09 07:30N 33°57' W 118°60'713.5
2017-Nov-09 07:00N 33°54' W 118°53'713.2
2017-Nov-09 06:30N 33°51' W 118°46'613.0
2017-Nov-09 06:00N 33°47' W 118°39'612.9
2017-Nov-09 05:30N 33°44' W 118°32'612.8
2017-Nov-09 05:01N 33°41' W 118°26'611.0
2017-Nov-09 04:30N 33°38' W 118°20'611.4
2017-Nov-09 04:00N 33°39' W 118°13'2 0.2
2017-Nov-08 13:31N 33°40' W 118°10'0 7.0
2017-Nov-08 13:30N 33°40' W 118°10'3 6.9
2017-Nov-08 13:00N 33°36' W 118°10'4 7.4
2017-Nov-08 12:30N 33°33' W 118°09'4 7.3
2017-Nov-08 11:56N 33°29' W 118°07'3 7.1
2017-Nov-08 11:30N 33°26' W 118°06'6 7.3
2017-Nov-08 10:41N 33°20' W 118°03'210.5
2017-Nov-08 10:30N 33°19' W 118°03'510.6
2017-Nov-08 10:00N 33°14' W 118°00'510.5
2017-Nov-08 09:30N 33°09' W 117°58'510.5
2017-Nov-08 09:00N 33°04' W 117°56'510.8
2017-Nov-08 08:30N 32°59' W 117°54'510.7
2017-Nov-08 08:00N 32°54' W 117°52'510.8
2017-Nov-08 07:30N 32°49' W 117°50'510.7
2017-Nov-08 07:00N 32°44' W 117°47'612.2
2017-Nov-08 06:30N 32°38' W 117°44'714.7
2017-Nov-08 06:00N 32°32' W 117°40'714.7
2017-Nov-08 05:30N 32°24' W 117°39'  
Track history (hours):
 
Tides and Currents Weather Stations Pressure Air Temp Water Temp Dewpoint Dewpoint Depression Visibility Wind Speed Wind Dir Waves Ship Positions

Cap Palliser

Last reported at 2017-Nov-13 01:05 UTC. Time now 2017-Nov-24 07:12 UTC.
Position N 26°40' W 114°50'.
Warning: this ship's position is 11 days out of date.

Length 170 m; beam 27 m; draft 11.3 m.

Type: Ship (hazmat cat A). MMSI: 636016647.

Date/timePositionNaut miles runAvg speedWind from/ knotsBaromVisibWave heightAir tempDewpointWater temp
2017-Nov-13 01:05N 26°40' W 114°50'115.7
2017-Nov-13 01:00N 26°41' W 114°51'915.5
2017-Nov-13 00:27N 26°48' W 114°57'715.5
2017-Nov-13 00:00N 26°54' W 115°02'815.6
2017-Nov-12 23:31N 26°60' W 115°07'815.2
2017-Nov-12 23:01N 27°06' W 115°12'815.5
2017-Nov-12 22:29N 27°12' W 115°18'715.7
2017-Nov-12 22:00N 27°18' W 115°22'815.2
2017-Nov-12 21:30N 27°24' W 115°28'2715.6
2017-Nov-12 19:45N 27°46' W 115°47'1215.9
2017-Nov-12 18:58N 27°56' W 115°55'715.7
2017-Nov-12 18:30N 28°02' W 116°00'1215.7
2017-Nov-12 17:42N 28°12' W 116°09'615.8
2017-Nov-12 17:20N 28°17' W 116°12'3515.7
2017-Nov-12 15:08N 28°45' W 116°36'215.5
2017-Nov-12 14:58N 28°46' W 116°37'17915.7
2017-Nov-12 03:33N 31°10' W 118°42'1115.9
2017-Nov-12 02:53N 31°18' W 118°49'8917.0
2017-Nov-11 21:37N 32°30' W 119°52'517.5
2017-Nov-11 21:19N 32°34' W 119°56'917.4
2017-Nov-11 20:47N 32°41' W 120°02'1917.1
2017-Nov-11 19:41N 32°56' W 120°16'416.8
2017-Nov-11 19:27N 32°59' W 120°18'816.9
2017-Nov-11 19:00N 33°06' W 120°24'816.1
2017-Nov-11 18:30N 33°12' W 120°29'815.8
2017-Nov-11 17:59N 33°19' W 120°35'715.7
2017-Nov-11 17:30N 33°25' W 120°41'815.6
2017-Nov-11 17:01N 33°31' W 120°46'815.5
2017-Nov-11 16:30N 33°37' W 120°52'816.1
2017-Nov-11 16:01N 33°43' W 120°58'917.7
2017-Nov-11 15:31N 33°51' W 121°04'917.9
2017-Nov-11 15:00N 33°59' W 121°08'917.6
2017-Nov-11 14:30N 34°07' W 121°12'918.0
2017-Nov-11 14:01N 34°16' W 121°16'918.0
2017-Nov-11 13:31N 34°24' W 121°20'917.7
2017-Nov-11 13:00N 34°32' W 121°24'917.7
2017-Nov-11 12:30N 34°40' W 121°29'917.7
2017-Nov-11 12:00N 34°48' W 121°33'918.0
2017-Nov-11 11:31N 34°57' W 121°37'918.0
2017-Nov-11 11:00N 35°05' W 121°41'918.0
2017-Nov-11 10:31N 35°13' W 121°45'917.7
2017-Nov-11 10:00N 35°21' W 121°50'8118.0
2017-Nov-11 05:31N 36°36' W 122°27'018.2
2017-Nov-11 05:30N 36°36' W 122°27'918.3
2017-Nov-11 05:00N 36°45' W 122°31'917.9
2017-Nov-11 04:30N 36°53' W 122°35'1017.5
2017-Nov-11 03:55N 37°03' W 122°40'717.4
2017-Nov-11 03:31N 37°10' W 122°43'917.7
2017-Nov-11 03:00N 37°18' W 122°43'917.8
2017-Nov-11 02:30N 37°27' W 122°44'917.8
2017-Nov-11 02:00N 37°36' W 122°44'816.9
2017-Nov-11 01:30N 37°44' W 122°41'612.4
2017-Nov-11 01:00N 37°47' W 122°34'714.5
2017-Nov-11 00:30N 37°50' W 122°25'611.2
2017-Nov-11 00:01N 37°48' W 122°19'0 0.4
2017-Nov-10 23:29N 37°48' W 122°19'0 0.0
2017-Nov-10 22:59N 37°48' W 122°19'0 0.0
2017-Nov-10 22:29N 37°48' W 122°19'0 0.0
2017-Nov-10 21:59N 37°48' W 122°19'0 0.0
2017-Nov-10 21:29N 37°48' W 122°19'0 0.0
2017-Nov-10 20:59N 37°48' W 122°19'0 0.0
2017-Nov-10 20:29N 37°48' W 122°19'0 0.0
2017-Nov-10 19:59N 37°48' W 122°19'0 0.0
2017-Nov-10 19:29N 37°48' W 122°19'0 0.0
2017-Nov-10 18:59N 37°48' W 122°19'0 0.0
2017-Nov-10 18:29N 37°48' W 122°19'0 0.0
2017-Nov-10 17:59N 37°48' W 122°19'0 0.0
2017-Nov-10 17:29N 37°48' W 122°19'0 0.0
2017-Nov-10 16:59N 37°48' W 122°19'0 0.0
2017-Nov-10 16:29N 37°48' W 122°19'0 0.0
2017-Nov-10 15:59N 37°48' W 122°19'0 0.0
2017-Nov-10 15:29N 37°48' W 122°19'0 0.0
2017-Nov-10 14:59N 37°48' W 122°19'0 0.0
2017-Nov-10 14:29N 37°48' W 122°19'0 0.0
2017-Nov-10 13:59N 37°48' W 122°19'0 0.0
2017-Nov-10 13:29N 37°48' W 122°19'0 0.0
2017-Nov-10 12:59N 37°48' W 122°19'0 0.0
2017-Nov-10 12:29N 37°48' W 122°19'0 0.0
2017-Nov-10 11:59N 37°48' W 122°19'0 0.0
2017-Nov-10 11:29N 37°48' W 122°19'0 0.0
2017-Nov-10 10:59N 37°48' W 122°19'0 0.0
2017-Nov-10 10:29N 37°48' W 122°19'0 0.0
2017-Nov-10 10:00N 37°48' W 122°19'1 2.8
2017-Nov-10 09:31N 37°48' W 122°20'5 9.8
2017-Nov-10 09:01N 37°49' W 122°26'714.3
2017-Nov-10 08:30N 37°47' W 122°35'611.0
2017-Nov-10 08:00N 37°43' W 122°40'4 8.5
2017-Nov-10 07:30N 37°39' W 122°40'510.3
2017-Nov-10 07:00N 37°34' W 122°40'510.2
2017-Nov-10 06:30N 37°29' W 122°40'510.2
2017-Nov-10 06:00N 37°24' W 122°40'510.5
2017-Nov-10 05:30N 37°18' W 122°40'612.0
2017-Nov-10 05:00N 37°12' W 122°40'611.9
2017-Nov-10 04:30N 37°07' W 122°38'612.4
2017-Nov-10 04:00N 37°01' W 122°35'813.2
2017-Nov-10 03:25N 36°54' W 122°31'613.4
2017-Nov-10 03:00N 36°49' W 122°28'1613.1
2017-Nov-10 01:49N 36°34' W 122°21'412.8
2017-Nov-10 01:30N 36°31' W 122°19'612.7
2017-Nov-10 01:00N 36°25' W 122°16'612.6
2017-Nov-10 00:30N 36°19' W 122°13'612.7
2017-Nov-10 00:00N 36°13' W 122°10'612.7
2017-Nov-09 23:30N 36°08' W 122°06'613.0
2017-Nov-09 23:00N 36°02' W 122°02'713.2
2017-Nov-09 22:30N 35°56' W 121°58'713.0
2017-Nov-09 22:00N 35°51' W 121°53'612.9
2017-Nov-09 21:30N 35°45' W 121°49'713.0
2017-Nov-09 20:59N 35°40' W 121°45'613.0
2017-Nov-09 20:30N 35°34' W 121°41'713.0
2017-Nov-09 20:00N 35°29' W 121°37'713.5
2017-Nov-09 19:30N 35°23' W 121°33'713.2
2017-Nov-09 19:00N 35°17' W 121°29'612.8
2017-Nov-09 18:30N 35°12' W 121°25'713.3
2017-Nov-09 18:00N 35°06' W 121°21'713.6
2017-Nov-09 17:30N 35°00' W 121°16'713.1
2017-Nov-09 17:00N 34°54' W 121°12'713.4
2017-Nov-09 16:30N 34°49' W 121°08'713.3
2017-Nov-09 16:00N 34°43' W 121°04'713.4
2017-Nov-09 15:30N 34°37' W 120°60'713.3
2017-Nov-09 14:57N 34°31' W 120°55'613.1
2017-Nov-09 14:30N 34°26' W 120°51'812.8
2017-Nov-09 13:54N 34°24' W 120°42'613.3
2017-Nov-09 13:28N 34°22' W 120°35'914.0
2017-Nov-09 12:49N 34°20' W 120°25'414.0
2017-Nov-09 12:30N 34°19' W 120°20'814.3
2017-Nov-09 11:58N 34°17' W 120°11'714.3
2017-Nov-09 11:30N 34°15' W 120°03'913.9
2017-Nov-09 10:52N 34°13' W 119°53'613.6
2017-Nov-09 10:27N 34°11' W 119°46'614.2
2017-Nov-09 10:00N 34°10' W 119°39'814.0
2017-Nov-09 09:25N 34°07' W 119°29'614.1
2017-Nov-09 09:00N 34°06' W 119°22'714.0
2017-Nov-09 08:30N 34°04' W 119°14'713.8
2017-Nov-09 08:00N 34°01' W 119°07'713.5
2017-Nov-09 07:30N 33°57' W 118°60'713.5
2017-Nov-09 07:00N 33°54' W 118°53'713.2
2017-Nov-09 06:30N 33°51' W 118°46'613.0
2017-Nov-09 06:00N 33°47' W 118°39'612.9
2017-Nov-09 05:30N 33°44' W 118°32'612.8
2017-Nov-09 05:01N 33°41' W 118°26'611.0
2017-Nov-09 04:30N 33°38' W 118°20'611.4
2017-Nov-09 04:00N 33°39' W 118°13'2 0.2
2017-Nov-08 13:31N 33°40' W 118°10'0 7.0
2017-Nov-08 13:30N 33°40' W 118°10'3 6.9
2017-Nov-08 13:00N 33°36' W 118°10'4 7.4
2017-Nov-08 12:30N 33°33' W 118°09'4 7.3
2017-Nov-08 11:56N 33°29' W 118°07'3 7.1
2017-Nov-08 11:30N 33°26' W 118°06'6 7.3
2017-Nov-08 10:41N 33°20' W 118°03'210.5
2017-Nov-08 10:30N 33°19' W 118°03'510.6
2017-Nov-08 10:00N 33°14' W 118°00'510.5
2017-Nov-08 09:30N 33°09' W 117°58'510.5
2017-Nov-08 09:00N 33°04' W 117°56'510.8
2017-Nov-08 08:30N 32°59' W 117°54'510.7
2017-Nov-08 08:00N 32°54' W 117°52'510.8
2017-Nov-08 07:30N 32°49' W 117°50'510.7
2017-Nov-08 07:00N 32°44' W 117°47'612.2
2017-Nov-08 06:30N 32°38' W 117°44'714.7
2017-Nov-08 06:00N 32°32' W 117°40'714.7
2017-Nov-08 05:30N 32°24' W 117°39'  

Dump ship's entire track history